createdAt,value
2022-09-23T04:16:28.359Z,0.373
2022-09-23T04:21:03.826Z,1.12
2022-09-23T04:26:35.357Z,3.361
2022-09-23T04:31:00.551Z,7.843
2022-09-23T04:37:47.022Z,29.133
2022-09-23T04:40:40.680Z,47.808
2022-09-23T04:43:23.878Z,73.953
2022-09-23T04:45:56.840Z,108.315
2022-09-23T04:49:00.674Z,162.846
2022-09-23T04:52:24.656Z,243.522
2022-09-23T04:55:13.017Z,325.692
2022-09-23T04:58:06.536Z,427.284
2022-09-23T05:00:49.777Z,537.84
2022-09-23T05:03:22.832Z,654.372
2022-09-23T05:05:55.867Z,776.88
2022-09-23T05:08:34.077Z,908.352
2022-09-23T05:11:17.313Z,1069.704
2022-09-23T05:15:01.818Z,1278.864
2022-09-23T05:17:39.929Z,1422.288
2022-09-23T05:20:18.190Z,1565.712
2022-09-23T05:22:51.278Z,1709.136
2022-09-23T05:25:49.833Z,1864.512
2022-09-23T05:28:38.258Z,2019.888
2022-09-23T05:31:19.875Z,2139.408
2022-09-23T05:34:04.921Z,2665.296
2022-09-23T05:36:48.259Z,2952.144
2022-09-23T05:39:31.495Z,3203.136
2022-09-23T05:42:45.427Z,3394.368
2022-09-23T05:45:18.488Z,3346.56
2022-09-23T05:47:51.578Z,3322.656
2022-09-23T05:50:29.835Z,3418.272
2022-09-23T05:53:13.087Z,4565.664
2022-09-23T05:55:51.321Z,4852.512
2022-09-23T05:58:24.390Z,5139.36
2022-09-23T06:01:07.721Z,5474.016
2022-09-23T06:04:01.177Z,5832.576
2022-09-23T06:06:34.293Z,6119.424
2022-09-23T06:09:25.180Z,6549.696
2022-09-23T06:12:05.980Z,6979.968
2022-09-23T06:15:09.746Z,7410.24
2022-09-23T06:17:47.899Z,7888.32
2022-09-23T06:20:41.486Z,8222.976
2022-09-23T06:23:29.913Z,9035.712
2022-09-23T06:26:03.105Z,9465.984
2022-09-23T06:28:56.582Z,9991.872
2022-09-23T06:31:34.847Z,10469.952
2022-09-23T06:34:18.314Z,10995.84
2022-09-23T06:36:56.386Z,11473.92
2022-09-23T06:40:15.427Z,12143.232
2022-09-23T06:42:52.149Z,12621.312
2022-09-23T06:45:31.860Z,13195.008
2022-09-23T06:48:10.008Z,13673.088
2022-09-23T06:51:13.922Z,14246.784
2022-09-23T06:54:07.434Z,14629.248
2022-09-23T06:56:40.479Z,14916.096
2022-09-23T06:59:23.832Z,15489.792
2022-09-23T07:02:27.671Z,16254.72
2022-09-23T07:05:21.202Z,16924.032
2022-09-23T07:08:04.513Z,18071.424
2022-09-23T07:10:37.771Z,19027.584
2022-09-23T07:13:21.020Z,18549.504
2022-09-23T07:16:19.586Z,19888.128
2022-09-23T07:19:18.215Z,20461.824
2022-09-23T07:22:06.649Z,21226.752
2022-09-23T07:24:39.730Z,21704.832
2022-09-23T07:27:43.553Z,22278.528
2022-09-23T07:30:56.971Z,21704.832
2022-09-23T07:33:31.313Z,23043.456
2022-09-23T07:36:03.758Z,23521.536
2022-09-23T07:38:38.677Z,25242.624
2022-09-23T07:41:30.447Z,25816.32
2022-09-23T07:44:29.049Z,26772.48
2022-09-23T07:47:07.304Z,25433.856
2022-09-23T07:49:40.408Z,27154.944
2022-09-23T07:52:23.724Z,25433.856
2022-09-23T07:55:39.923Z,28684.8
2022-09-23T07:58:33.443Z,29067.264
2022-09-23T08:02:02.803Z,29258.496
2022-09-23T08:04:51.172Z,29067.264
2022-09-23T08:07:44.631Z,30597.12
2022-09-23T08:10:38.191Z,30597.12
2022-09-23T08:13:47.051Z,33083.136
2022-09-23T08:16:50.748Z,33656.832
2022-09-23T08:19:49.458Z,34230.528
2022-09-23T08:22:22.514Z,34612.992
2022-09-23T08:25:16.988Z,34230.528
2022-09-23T08:27:54.151Z,34995.456
2022-09-23T08:30:37.515Z,34804.224
2022-09-23T08:33:10.632Z,35569.152
2022-09-23T08:36:14.374Z,35951.616
2022-09-23T08:38:47.474Z,37290.24
2022-09-23T08:41:46.170Z,38437.632
2022-09-23T08:44:24.361Z,37672.704
2022-09-23T08:47:33.237Z,35951.616
2022-09-23T08:50:28.344Z,38246.4
2022-09-23T08:53:01.384Z,38820.096
2022-09-23T08:56:30.554Z,39967.488
2022-09-23T08:59:03.733Z,37672.704
2022-09-23T09:01:47.087Z,38246.4
2022-09-23T09:04:35.381Z,39967.488
2022-09-23T09:07:36.488Z,41114.88
2022-09-23T09:10:22.391Z,41688.576
2022-09-23T09:13:01.372Z,39011.328
2022-09-23T09:16:55.325Z,41306.112
2022-09-23T09:19:34.260Z,41879.808
2022-09-23T09:22:11.378Z,10565.568
2022-09-23T09:25:34.561Z,11569.536
2022-09-23T09:28:12.541Z,30979.584
2022-09-23T09:32:14.341Z,44557.056
2022-09-23T09:35:32.024Z,47234.304
2022-09-23T09:40:12.716Z,48955.392
2022-09-23T09:42:45.766Z,48572.928
2022-09-23T09:45:39.258Z,48381.696
2022-09-23T09:49:28.895Z,47234.304
2022-09-23T09:51:59.615Z,48955.392
2022-09-23T09:54:37.824Z,52015.104
2022-09-23T09:57:26.204Z,50102.784
2022-09-23T10:00:09.991Z,45513.216
2022-09-23T10:02:51.882Z,42835.968
2022-09-23T10:06:15.349Z,20748.672
2022-09-23T10:08:49.420Z,34612.992
2022-09-23T10:11:20.993Z,29258.496
2022-09-23T10:14:10.978Z,49720.32
2022-09-23T10:17:00.318Z,41497.344
2022-09-23T10:19:31.377Z,44365.824
2022-09-23T10:22:10.944Z,25051.392
2022-09-23T10:24:45.743Z,19505.664
2022-09-23T10:27:50.605Z,19983.744
2022-09-23T10:30:38.976Z,19601.28
2022-09-23T10:33:27.206Z,19983.744
2022-09-23T10:36:00.372Z,21513.6
2022-09-23T10:38:39.418Z,36142.848
2022-09-23T10:41:51.207Z,47999.232
2022-09-23T10:44:29.376Z,54309.888
2022-09-23T10:47:38.085Z,56222.208
2022-09-23T10:50:34.668Z,54309.888
2022-09-23T10:53:43.396Z,53544.96
2022-09-23T10:56:36.890Z,53927.424
2022-09-23T11:00:26.487Z,55839.744
2022-09-23T11:03:20.021Z,57752.064
2022-09-23T11:06:10.102Z,58516.992
2022-09-23T11:08:48.253Z,57752.064
2022-09-23T11:11:21.351Z,58899.456
2022-09-23T11:14:04.453Z,55074.816
2022-09-23T11:16:37.766Z,51250.176
2022-09-23T11:19:15.873Z,52780.032
2022-09-23T11:21:59.207Z,53927.424
2022-09-23T11:25:07.988Z,51632.64
2022-09-23T11:28:06.722Z,48572.928
2022-09-23T11:30:39.911Z,50102.784
2022-09-23T11:33:27.239Z,38055.168
2022-09-23T11:36:00.045Z,32700.672
2022-09-23T11:38:41.060Z,50867.712
2022-09-23T11:41:14.158Z,48381.696
2022-09-23T11:43:46.451Z,22565.376
2022-09-23T11:46:30.604Z,23330.304
2022-09-23T11:49:08.779Z,23521.536
2022-09-23T11:52:22.579Z,22947.84
2022-09-23T11:55:14.705Z,25433.856
2022-09-23T11:57:44.334Z,53544.96
2022-09-23T12:01:05.476Z,52397.568
2022-09-23T12:04:34.786Z,50867.712
2022-09-23T12:07:36.686Z,33274.368
2022-09-23T12:10:24.544Z,28876.032
2022-09-23T12:13:16.487Z,46660.608
2022-09-23T12:15:49.578Z,40158.72
2022-09-23T12:18:57.290Z,43218.432
2022-09-23T12:21:49.580Z,52015.104
2022-09-23T12:25:23.674Z,51632.64
2022-09-23T12:27:56.796Z,53162.496
2022-09-23T12:30:40.057Z,53927.424
2022-09-23T12:33:23.328Z,53162.496
2022-09-23T12:36:01.538Z,50102.784
2022-09-23T12:38:39.714Z,49337.856
2022-09-23T12:41:38.281Z,53162.496
2022-09-23T12:44:14.070Z,52397.568
2022-09-23T12:46:57.335Z,53927.424
2022-09-23T12:49:50.860Z,53162.496
2022-09-23T12:52:39.265Z,52015.104
2022-09-23T12:56:33.966Z,50485.248
2022-09-23T12:59:58.010Z,50102.784
2022-09-23T13:02:31.066Z,51632.64
2022-09-23T13:05:23.884Z,51250.176
2022-09-23T13:08:37.748Z,52397.568
2022-09-23T13:11:10.859Z,53544.96
2022-09-23T13:13:59.167Z,52397.568
2022-09-23T13:16:42.331Z,30023.424
2022-09-23T13:19:17.353Z,52015.104
2022-09-23T13:22:32.238Z,48572.928
2022-09-23T13:25:05.387Z,48955.392
2022-09-23T13:27:38.413Z,45895.68
2022-09-23T13:30:37.441Z,47425.536
2022-09-23T13:33:56.149Z,40158.72
2022-09-23T13:36:28.261Z,43409.664
2022-09-23T13:39:00.874Z,43027.2
2022-09-23T13:43:51.628Z,39202.56
2022-09-23T13:46:25.801Z,37481.472
2022-09-23T13:49:27.883Z,40349.952
2022-09-23T13:52:04.526Z,33465.6
2022-09-23T13:54:44.416Z,30214.656
2022-09-23T13:57:26.691Z,23617.152
2022-09-23T14:00:40.677Z,33656.832
2022-09-23T14:03:42.634Z,25625.088
2022-09-23T14:06:19.265Z,40732.416
2022-09-23T14:08:57.927Z,41114.88
2022-09-23T14:11:47.427Z,21417.984
2022-09-23T14:14:30.235Z,16063.488
2022-09-23T14:17:18.581Z,14629.248
2022-09-23T14:20:17.123Z,14151.168
2022-09-23T14:23:40.655Z,19218.816
2022-09-23T14:26:11.166Z,17402.112
2022-09-23T14:28:42.173Z,26772.48
2022-09-23T14:32:26.057Z,32126.976
2022-09-23T14:35:02.219Z,28302.336
2022-09-23T14:37:38.522Z,27537.408
2022-09-23T14:40:42.367Z,32700.672
2022-09-23T14:43:26.248Z,31935.744
2022-09-23T14:48:05.451Z,24860.16
2022-09-23T14:51:07.481Z,11330.496
2022-09-23T14:54:20.582Z,14916.096
2022-09-23T14:56:58.412Z,16063.488
2022-09-23T14:59:32.582Z,10613.376
2022-09-23T15:02:10.860Z,12430.08
2022-09-23T15:07:27.527Z,10374.336
2022-09-23T15:10:23.879Z,16254.72
2022-09-23T15:13:26.347Z,19888.128
2022-09-23T15:16:09.624Z,17019.648
2022-09-23T15:19:38.740Z,14151.168
2022-09-23T15:22:32.228Z,12334.464
2022-09-23T15:25:05.253Z,10756.8
2022-09-23T15:28:03.911Z,10278.72
2022-09-23T15:30:36.904Z,9609.408
2022-09-23T15:34:01.093Z,8701.056
2022-09-23T15:37:45.479Z,8222.976
2022-09-23T15:40:23.642Z,7744.896
2022-09-23T15:43:06.907Z,7266.816
2022-09-23T15:46:41.131Z,6454.08
2022-09-23T15:49:29.462Z,6119.424
2022-09-23T15:55:04.387Z,5474.016
2022-09-23T15:59:19.577Z,4972.032
2022-09-23T16:04:49.738Z,4207.104
2022-09-23T16:11:21.276Z,3442.176
2022-09-23T16:16:21.478Z,3047.76
2022-09-23T16:21:21.506Z,2808.72
2022-09-23T16:26:21.640Z,2486.016
2022-09-23T16:31:21.726Z,2079.648
2022-09-23T16:36:21.856Z,1709.136
2022-09-23T16:41:21.904Z,1380.456
2022-09-23T16:46:22.117Z,1057.752
2022-09-23T16:51:22.121Z,752.976
2022-09-23T16:56:27.398Z,507.96
2022-09-23T17:01:22.367Z,318.222
2022-09-23T17:06:22.498Z,209.16
2022-09-23T17:11:22.558Z,129.231
2022-09-23T17:16:22.735Z,68.724
2022-09-23T17:21:22.790Z,31
2022-09-23T17:26:22.881Z,12.699
2022-09-23T17:31:23.043Z,4.482
2022-09-23T17:36:23.134Z,1.867
2022-09-23T17:41:23.164Z,0.373
2022-09-23T17:51:23.390Z,0
